• Join FlightAware (Why Join?)
  • Login
  • US Flag GB Flag 
12:32 EDT


 

Airport Tracker/Info


-or-


 

Live Flight TrackerFlight Track Log ✈ JZA8279 ✈ 12-May-2013 ✈ CYPR - CYVR

Flight Track Log - Related Links

Times and Time Zones

All times are in EDT time to prevent confusion due to time zone crossing. See the JZA8279 flight status page for this flight to view local times or setup timezone preferences in your user account.

Time Position Orientation Groundspeed Altitude Reporting Facility
EDT Latitude Longitude Course Direction KTS MPH feet Rate Location/Type
13:48 54.2333 -130.4833 136° Southeast 120 138 2,500  Level Vancouver Center
13:49 54.2167 -130.5333 240° Southwest 130 150 4,300 1,800 Climbing Vancouver Center
13:50 54.1833 -130.5333 180° South 120 138 6,100 1,560 Climbing Vancouver Center
13:51 54.1667 -130.4667 113° Southeast 140 161 7,500 1,500 Climbing Vancouver Center
13:52 54.0347 -130.0290 133° Southeast  Level FlightAware Approximate
13:52 54.1333 -130.4333 150° Southeast 140 161 9,100  Level Vancouver Center
13:53 53.9881 -129.9520 136° Southeast  Level FlightAware Approximate
13:53 54.1000 -130.3833 139° Southeast 140 161 10,500  Level Vancouver Center
13:54 54.0667 -130.3500 150° Southeast 150 173 11,600 1,200 Climbing Vancouver Center
13:55 54.0500 -130.2833 113° Southeast 170 196 12,900 1,080 Climbing Vancouver Center
13:56 54.0167 -130.2167 130° Southeast 180 207 13,800 1,140 Climbing Vancouver Center
13:57 53.9667 -130.1333 136° Southeast 190 219 15,200 1,140 Climbing Vancouver Center
13:58 53.9333 -130.0667 130° Southeast 200 230 16,100 900 Climbing Vancouver Center
13:59 53.8833 -130.0000 142° Southeast 200 230 17,100 960 Climbing Vancouver Center
14:00 53.8500 -129.9333 130° Southeast 200 230 18,100 960 Climbing Vancouver Center
14:01 53.8000 -129.8833 149° Southeast 200 230 19,100 840 Climbing Vancouver Center
14:02 53.7667 -129.8167 130° Southeast 210 242 19,800 600 Climbing Vancouver Center
14:03 53.7167 -129.7500 142° Southeast 210 242 20,400 660 Climbing Vancouver Center
14:04 53.6833 -129.6667 124° Southeast 210 242 21,200 600 Climbing Vancouver Center
14:05 53.6500 -129.6000 130° Southeast 210 242 21,700 540 Climbing Vancouver Center
14:06 53.6000 -129.5333 142° Southeast 210 242 22,300 600 Climbing Vancouver Center
14:07 53.5667 -129.4500 124° Southeast 210 242 22,900 540 Climbing Vancouver Center
14:08 53.5167 -129.3833 142° Southeast 220 253 23,400 420 Climbing Vancouver Center
14:09 53.4667 -129.3167 142° Southeast 220 253 23,800 360 Climbing Vancouver Center
14:10 53.4167 -129.2333 135° Southeast 220 253 24,200 300 Climbing Vancouver Center
14:11 53.4000 -129.1667 113° Southeast 220 253 24,500 360 Climbing Vancouver Center
14:12 53.3500 -129.0833 135° Southeast 220 253 25,000 240 Climbing Vancouver Center
14:13 53.3000 -129.0167 141° Southeast 220 253 25,000  Level Vancouver Center
14:14 53.2500 -128.9333 135° Southeast 240 276 25,000  Level Vancouver Center
14:15 53.2000 -128.8500 135° Southeast 240 276 25,000  Level Vancouver Center
14:16 53.1667 -128.7833 130° Southeast 250 288 25,000  Level Vancouver Center
14:17 53.1167 -128.7000 135° Southeast 250 288 25,000  Level Vancouver Center
14:18 53.0500 -128.6000 138° Southeast 250 288 25,000  Level Vancouver Center
14:19 53.0000 -128.5167 135° Southeast 260 299 25,000  Level Vancouver Center
14:20 52.9500 -128.4333 135° Southeast 260 299 25,000  Level Vancouver Center
14:21 52.9167 -128.3667 130° Southeast 260 299 25,000  Level Vancouver Center
14:22 52.8500 -128.2833 143° Southeast 250 288 25,000  Level Vancouver Center
14:23 52.8000 -128.1833 130° Southeast 260 299 25,000  Level Vancouver Center
14:24 52.7500 -128.1000 135° Southeast 260 299 25,000  Level Vancouver Center
14:25 52.7000 -128.0167 135° Southeast 260 299 25,000  Level Vancouver Center
14:26 52.6500 -127.9500 141° Southeast 260 299 25,000  Level Vancouver Center
14:27 52.6000 -127.8667 135° Southeast 260 299 25,000  Level Vancouver Center
14:28 52.5500 -127.7833 135° Southeast 260 299 25,000  Level Vancouver Center
14:29 52.5000 -127.7000 135° Southeast 260 299 25,000  Level Vancouver Center
14:30 52.4500 -127.6000 129° Southeast 260 299 25,000  Level Vancouver Center
14:31 52.3833 -127.5167 143° Southeast 260 299 25,000  Level Vancouver Center
14:32 52.3333 -127.4333 134° Southeast 260 299 25,000  Level Vancouver Center
14:33 52.2833 -127.3667 141° Southeast 260 299 25,000  Level Vancouver Center
14:34 52.2333 -127.2833 134° Southeast 260 299 25,000  Level Vancouver Center
14:35 52.1833 -127.2000 134° Southeast 260 299 25,000  Level Vancouver Center
14:36 52.1333 -127.1167 134° Southeast 260 299 25,000  Level Vancouver Center
14:37 52.0833 -127.0333 134° Southeast 260 299 25,000  Level Vancouver Center
14:38 52.0333 -126.9500 134° Southeast 260 299 25,000  Level Vancouver Center
14:39 51.9667 -126.8667 142° Southeast 260 299 25,000  Level Vancouver Center
14:40 51.9167 -126.8000 141° Southeast 260 299 25,000  Level Vancouver Center
14:41 51.8667 -126.7167 134° Southeast 260 299 25,000  Level Vancouver Center
14:42 51.8333 -126.6333 123° Southeast 260 299 25,000  Level Vancouver Center
14:43 51.7667 -126.5500 142° Southeast 250 288 25,000  Level Vancouver Center
14:44 51.7167 -126.4667 134° Southeast 250 288 25,000  Level Vancouver Center
14:45 51.6667 -126.4167 148° Southeast 260 299 25,000  Level Vancouver Center
14:46 51.6167 -126.3333 134° Southeast 260 299 25,000  Level Vancouver Center
14:47 51.5667 -126.2500 134° Southeast 260 299 25,000  Level Vancouver Center
14:48 51.5000 -126.1667 142° Southeast 260 299 25,000  Level Vancouver Center
14:49 51.4500 -126.0833 134° Southeast 260 299 25,000  Level Vancouver Center
14:50 51.4000 -126.0000 134° Southeast 260 299 25,000  Level Vancouver Center
14:51 51.3500 -125.9333 140° Southeast 260 299 25,000  Level Vancouver Center
14:52 51.3000 -125.8500 134° Southeast 260 299 25,000  Level Vancouver Center
14:53 51.2500 -125.7667 134° Southeast 260 299 25,000  Level Vancouver Center
14:54 51.2000 -125.6833 134° Southeast 260 299 25,000  Level Vancouver Center
14:55 51.1500 -125.6000 134° Southeast 260 299 25,000  Level Vancouver Center
14:56 51.1000 -125.5500 148° Southeast 250 288 25,000  Level Vancouver Center
14:57 51.0333 -125.4667 142° Southeast 250 288 25,000  Level Vancouver Center
14:58 50.9833 -125.3833 134° Southeast 250 288 25,000  Level Vancouver Center
14:59 50.9333 -125.3167 140° Southeast 250 288 25,000  Level Vancouver Center
15:00 50.8833 -125.2500 140° Southeast 250 288 25,000  Level Vancouver Center
15:01 50.8333 -125.1667 134° Southeast 250 288 25,000  Level Vancouver Center
15:02 50.7833 -125.1000 140° Southeast 250 288 25,000  Level Vancouver Center
15:03 50.7333 -125.0167 133° Southeast 250 288 25,000  Level Vancouver Center
15:04 50.6667 -124.9500 148° Southeast 250 288 25,000  Level Vancouver Center
15:05 50.6167 -124.8833 140° Southeast 240 276 25,000  Level Vancouver Center
15:06 50.5667 -124.8000 133° Southeast 240 276 25,000  Level Vancouver Center
15:07 50.5167 -124.7500 148° Southeast 240 276 25,000  Level Vancouver Center
15:08 50.4833 -124.6667 122° Southeast 240 276 25,000  Level Vancouver Center
15:09 50.4333 -124.5833 133° Southeast 240 276 25,000  Level Vancouver Center
15:10 50.3833 -124.5333 147° Southeast 230 265 25,000  Level Vancouver Center
15:11 50.3167 -124.4500 141° Southeast 240 276 25,000  Level Vancouver Center
15:12 50.2833 -124.4000 136° Southeast 230 265 25,000 -480 Level Vancouver Center
15:13 50.2167 -124.3167 141° Southeast 240 276 24,100 -1,140 Descending Vancouver Center
15:14 50.1667 -124.2500 139° Southeast 270 311 22,800 -1,380 Descending Vancouver Center
15:15 50.1000 -124.1667 141° Southeast 290 334 21,400 -1,440 Descending Vancouver Center
15:16 50.0500 -124.0833 133° Southeast 290 334 20,000 -1,380 Descending Vancouver Center
15:17 49.9833 -124.0000 141° Southeast 290 334 18,700 -1,320 Descending Vancouver Center
15:18 49.9167 -123.9000 136° Southeast 290 334 17,400 -1,380 Descending Vancouver Center
15:19 49.8667 -123.8167 133° Southeast 290 334 16,000 -1,440 Descending Vancouver Center
15:20 49.8000 -123.7500 147° Southeast 290 334 14,600 -1,380 Descending Vancouver Center
15:21 49.7333 -123.6667 141° Southeast 290 334 13,300 -1,200 Descending Vancouver Center
15:22 49.6833 -123.6500 168° South 260 299 12,200 -1,380 Descending Vancouver Center
15:23 49.6000 -123.6500 180° South 250 288 10,600 -1,500 Descending Vancouver Center
15:24 49.5333 -123.6167 162° South 250 288 9,200 -1,500 Descending Vancouver Center
15:25 49.4667 -123.6000 171° South 240 276 7,600 -1,380 Descending Vancouver Center
15:26 49.4000 -123.5667 162° South 240 276 6,500 -1,020 Descending Vancouver Center
15:27 49.3500 -123.5500 168° South 220 253 5,600 -1,020 Descending Vancouver Center
15:28 49.2833 -123.5167 162° South 210 242 4,500 -960 Descending Vancouver Center
15:29 49.2333 -123.5000 168° South 210 242 3,700 -840 Descending Vancouver Center
15:30 49.2167 -123.4167 107° East 210 242 2,900 -1,020 Descending Vancouver Center
15:31 49.2000 -123.3333 107° East 210 242 1,700 -900 Descending Vancouver Center
15:32 49.1833 -123.2667 111° Southeast 170 196 1,100 -780 Descending Vancouver Center
15:33 49.1833 -123.2167 90° East 120 138 200 -900 Descending Vancouver Center